Weather at Cu Nim Airport

Public forecast

Using degrees Celsius for public forecast. Weather courtesy of forecast.io.

Closest aviation weather report (METAR) to Cu Nim Airport

Closest report is Calgary / Springbank Airport, 24.0 nm (44.4 km) NNW.

2024/05/20 00:30 (retrieved 15 minutes ago)

CYBW 200030Z AUTO 06005KT 010V070 9SM BKN044 OVC060 06/02 A2996 RMK SLP174

Closest aviation forecast (TAF) to Cu Nim Airport

Closest forecast is Whitecourt Airport, 213.6 nm (395.7 km) NNW.

2024/05/19 19:06 Ammendment (retrieved 6 hours ago)

TAF AMD CYZU 191903Z 1919/1923 30012G22KT P6SM -RA SCT015 OVC030 TEMPO 1919/1920 BKN015 OVC030 FM192000 30012G22KT P6SM SCT030 OVC050 TEMPO 1920/1923 P6SM -SHRA OVC030 RMK NXT FCST BY 201400Z